createdAt,value
2022-12-09T03:13:52.730Z,11.98
2022-12-09T03:21:06.065Z,13.75
2022-12-09T03:23:38.585Z,9.15
2022-12-09T03:26:09.428Z,11.85
2022-12-09T03:28:44.053Z,9.60
2022-12-09T03:31:18.530Z,7.72
2022-12-09T03:33:52.899Z,8.20
2022-12-09T03:36:24.309Z,10.57
2022-12-09T03:38:56.197Z,7.68
2022-12-09T03:41:34.914Z,7.07
2022-12-09T03:44:31.315Z,7.57
2022-12-09T03:47:01.891Z,6.30
2022-12-09T03:49:31.577Z,7.20
2022-12-09T03:52:37.513Z,9.13
2022-12-09T03:55:13.418Z,10.05
2022-12-09T03:57:47.022Z,9.20
2022-12-09T04:00:17.063Z,8.80
2022-12-09T04:02:47.200Z,6.18
2022-12-09T04:05:17.097Z,8.38
2022-12-09T04:07:47.036Z,9.55
2022-12-09T04:10:16.711Z,7.57
2022-12-09T04:12:46.371Z,9.07
2022-12-09T04:15:17.045Z,8.52
2022-12-09T04:17:46.925Z,8.07
2022-12-09T04:20:16.795Z,7.45
2022-12-09T04:22:46.429Z,7.93
2022-12-09T04:25:16.428Z,7.10
2022-12-09T04:27:46.159Z,6.20
2022-12-09T04:30:15.872Z,5.70
2022-12-09T04:32:45.960Z,6.28
2022-12-09T04:35:15.737Z,6.38
2022-12-09T04:37:45.308Z,6.32
2022-12-09T04:40:21.196Z,5.70
2022-12-09T04:42:53.530Z,5.93
2022-12-09T04:45:24.205Z,5.57
2022-12-09T04:47:54.146Z,5.97
2022-12-09T04:50:23.833Z,6.90
2022-12-09T04:52:53.493Z,5.90
2022-12-09T04:55:23.194Z,10.13
2022-12-09T04:57:53.023Z,5.28
2022-12-09T05:00:23.171Z,10.38
2022-12-09T05:02:52.891Z,5.53
2022-12-09T05:05:22.831Z,6.78
2022-12-09T05:07:52.793Z,4.63
2022-12-09T05:10:22.987Z,4.68
2022-12-09T05:12:53.395Z,3.88
2022-12-09T05:15:24.461Z,4.50
2022-12-09T05:17:55.429Z,5.00
2022-12-09T05:20:30.022Z,4.60
2022-12-09T05:23:04.313Z,5.03
2022-12-09T05:25:38.435Z,3.85
2022-12-09T05:28:08.465Z,3.95
2022-12-09T05:30:40.272Z,3.88
2022-12-09T05:33:10.784Z,5.28
2022-12-09T05:35:49.203Z,4.28
2022-12-09T05:38:23.046Z,6.40
2022-12-09T05:40:53.697Z,5.50
2022-12-09T05:43:23.821Z,5.00
2022-12-09T05:45:54.147Z,5.93
2022-12-09T05:48:24.300Z,4.25
2022-12-09T05:51:16.603Z,5.65
2022-12-09T05:53:47.011Z,6.35
2022-12-09T05:56:22.330Z,6.47
2022-12-09T05:58:53.324Z,4.65
2022-12-09T06:01:24.296Z,5.95
2022-12-09T06:03:56.539Z,5.03
2022-12-09T06:06:29.805Z,3.78
2022-12-09T06:09:02.634Z,5.70
2022-12-09T06:11:34.203Z,4.55
2022-12-09T06:14:04.244Z,5.28
2022-12-09T06:16:35.737Z,3.35
2022-12-09T06:19:06.993Z,4.60
2022-12-09T06:21:37.033Z,3.60
2022-12-09T06:24:08.055Z,3.78
2022-12-09T06:26:38.189Z,9.77
2022-12-09T06:29:08.270Z,6.07
2022-12-09T06:31:38.686Z,4.05
2022-12-09T06:34:09.070Z,4.45
2022-12-09T06:36:39.335Z,6.90
2022-12-09T06:39:11.039Z,6.63
2022-12-09T06:41:43.884Z,3.92
2022-12-09T06:44:23.073Z,6.65
2022-12-09T06:46:53.784Z,9.52
2022-12-09T06:49:24.023Z,5.38
2022-12-09T06:51:54.615Z,3.15
2022-12-09T06:54:24.898Z,6.25
2022-12-09T06:56:55.072Z,5.22
2022-12-09T06:59:26.971Z,5.00
2022-12-09T07:01:57.087Z,3.97
2022-12-09T07:04:27.936Z,4.60
2022-12-09T07:06:58.223Z,4.53
2022-12-09T07:09:29.439Z,3.55
2022-12-09T07:11:59.483Z,4.32
2022-12-09T07:14:30.091Z,5.93
2022-12-09T07:17:00.857Z,5.13
2022-12-09T07:19:32.096Z,5.35
2022-12-09T07:22:01.804Z,5.55
2022-12-09T07:24:31.532Z,4.13
2022-12-09T07:27:07.525Z,7.57
2022-12-09T07:29:39.601Z,5.55
2022-12-09T07:32:11.851Z,6.50
2022-12-09T07:34:42.166Z,5.93
2022-12-09T07:37:12.063Z,7.10
2022-12-09T07:39:41.819Z,4.25
2022-12-09T07:42:11.455Z,5.85
2022-12-09T07:44:41.897Z,4.22
2022-12-09T07:47:11.821Z,4.20
2022-12-09T07:49:41.481Z,4.07
2022-12-09T07:52:11.456Z,6.10
2022-12-09T07:54:41.375Z,5.30
2022-12-09T07:57:11.386Z,4.15
2022-12-09T07:59:41.534Z,4.40
2022-12-09T08:02:12.450Z,6.80
2022-12-09T08:04:42.310Z,4.85
2022-12-09T08:07:13.680Z,5.45
2022-12-09T08:09:43.893Z,5.40
2022-12-09T08:12:14.427Z,3.42
2022-12-09T08:14:44.528Z,4.93
2022-12-09T08:17:15.675Z,4.15
2022-12-09T08:19:46.636Z,5.95
2022-12-09T08:22:17.235Z,7.05
2022-12-09T08:24:47.481Z,6.20
2022-12-09T08:27:17.744Z,4.65
2022-12-09T08:29:48.184Z,4.07
2022-12-09T08:32:20.224Z,4.45
2022-12-09T08:34:50.336Z,3.95
2022-12-09T08:37:20.626Z,3.85
2022-12-09T08:39:50.890Z,5.63
2022-12-09T08:42:21.230Z,6.03
2022-12-09T08:44:57.097Z,4.50
2022-12-09T08:47:32.345Z,6.00
2022-12-09T08:50:03.089Z,7.03
2022-12-09T08:52:38.727Z,6.10
2022-12-09T08:55:11.483Z,6.80
2022-12-09T08:57:41.780Z,4.93
2022-12-09T09:00:12.552Z,4.28
2022-12-09T09:02:43.282Z,4.20
2022-12-09T09:05:13.523Z,5.75
2022-12-09T09:07:43.853Z,5.03
2022-12-09T09:10:14.619Z,8.82
2022-12-09T09:12:45.554Z,5.55
2022-12-09T09:15:15.992Z,6.35
2022-12-09T09:17:51.239Z,5.20
2022-12-09T09:20:21.873Z,5.68
2022-12-09T09:22:53.325Z,6.40
2022-12-09T09:25:26.723Z,9.85
2022-12-09T09:27:56.566Z,5.47
2022-12-09T09:30:26.325Z,31.73
2022-12-09T09:32:56.200Z,8.88
2022-12-09T09:35:26.018Z,6.63
2022-12-09T09:37:56.777Z,3.55
2022-12-09T09:40:26.928Z,3.53
2022-12-09T09:42:58.002Z,5.05
2022-12-09T09:45:28.129Z,5.50
2022-12-09T09:48:04.809Z,4.15
2022-12-09T09:51:05.923Z,4.25
2022-12-09T09:53:37.796Z,5.00
2022-12-09T09:56:45.133Z,7.20
2022-12-09T09:59:38.299Z,11.20
2022-12-09T10:02:47.468Z,3.33
2022-12-09T10:05:41.235Z,6.80
2022-12-09T10:08:44.625Z,7.32
2022-12-09T10:11:38.914Z,5.07
2022-12-09T10:14:25.390Z,7.15
2022-12-09T10:17:34.465Z,8.00
2022-12-09T10:20:27.601Z,6.38
2022-12-09T10:23:11.947Z,9.15
2022-12-09T10:25:49.876Z,8.45
2022-12-09T10:28:34.576Z,12.52
2022-12-09T10:31:06.244Z,6.53
2022-12-09T10:33:39.251Z,9.90
2022-12-09T10:36:22.060Z,4.97
2022-12-09T10:38:51.691Z,4.57
2022-12-09T10:42:06.389Z,6.15
2022-12-09T10:44:36.167Z,6.85
2022-12-09T10:47:08.868Z,21.38
2022-12-09T10:49:38.756Z,11.60
2022-12-09T10:52:08.675Z,15.15
2022-12-09T10:54:42.884Z,6.53
2022-12-09T10:57:28.974Z,10.98
2022-12-09T11:00:21.662Z,15.52
2022-12-09T11:02:57.550Z,8.90
2022-12-09T11:05:35.742Z,8.85
2022-12-09T11:08:06.921Z,11.57
2022-12-09T11:10:37.666Z,13.38
2022-12-09T11:13:11.730Z,8.43
2022-12-09T11:15:45.059Z,14.98
2022-12-09T11:18:38.264Z,11.93
2022-12-09T11:21:29.866Z,10.70
2022-12-09T11:24:03.475Z,13.27
2022-12-09T11:26:40.072Z,20.30
2022-12-09T11:29:22.116Z,19.73
2022-12-09T11:31:53.079Z,16.20
2022-12-09T11:34:29.209Z,20.23
2022-12-09T11:37:00.823Z,15.10
2022-12-09T11:39:36.751Z,13.65
2022-12-09T11:42:23.701Z,16.48
2022-12-09T11:45:05.983Z,17.43
2022-12-09T11:48:21.244Z,22.48
2022-12-09T11:50:34.011Z,13.95
2022-12-09T11:53:29.260Z,12.52
2022-12-09T11:56:19.919Z,17.92
2022-12-09T11:59:05.853Z,14.40
2022-12-09T12:02:07.625Z,15.05
2022-12-09T12:05:05.221Z,20.30
2022-12-09T12:07:51.559Z,23.83
2022-12-09T12:10:52.454Z,18.52
2022-12-09T12:13:29.876Z,17.67
2022-12-09T12:16:39.888Z,18.08
2022-12-09T12:19:33.605Z,20.80
2022-12-09T12:22:41.181Z,22.40
2022-12-09T12:28:38.618Z,21.08
2022-12-09T12:31:35.176Z,22.20
2022-12-09T12:34:38.696Z,24.20
2022-12-09T12:37:38.148Z,33.65
2022-12-09T12:40:46.957Z,30.58
2022-12-09T12:44:09.567Z,28.15
2022-12-09T12:47:06.805Z,38.67
2022-12-09T12:50:11.752Z,41.15
2022-12-09T12:53:10.438Z,35.92
2022-12-09T12:56:08.458Z,32.45
2022-12-09T12:59:09.366Z,27.42
2022-12-09T13:01:56.177Z,27.88
2022-12-09T13:04:40.198Z,27.73
2022-12-09T13:07:37.206Z,32.17
2022-12-09T13:10:45.935Z,28.17
2022-12-09T13:13:35.613Z,29.42
2022-12-09T13:16:22.553Z,35.83
2022-12-09T13:18:52.876Z,36.58
2022-12-09T13:21:23.671Z,33.20
2022-12-09T13:24:29.564Z,36.03
2022-12-09T13:27:12.873Z,36.35
2022-12-09T13:29:56.819Z,34.30
2022-12-09T13:32:58.491Z,38.03
2022-12-09T13:35:40.950Z,34.58
2022-12-09T13:38:49.721Z,37.97
2022-12-09T13:41:59.344Z,33.13
2022-12-09T13:44:37.760Z,46.38
2022-12-09T13:47:28.336Z,35.83
2022-12-09T13:50:04.249Z,27.17
2022-12-09T13:54:54.722Z,30.88
2022-12-09T13:57:43.763Z,27.17
2022-12-09T14:00:20.158Z,39.58
2022-12-09T14:03:04.406Z,39.65
2022-12-09T14:05:38.758Z,31.73
2022-12-09T14:08:31.209Z,32.72
2022-12-09T14:11:00.975Z,38.28
2022-12-09T14:13:37.133Z,26.77
2022-12-09T14:16:38.891Z,25.50
2022-12-09T14:19:43.100Z,26.75
2022-12-09T14:24:34.562Z,23.27
2022-12-09T14:27:25.754Z,21.70
2022-12-09T14:30:19.126Z,23.08
2022-12-09T14:32:58.920Z,22.33
2022-12-09T14:35:50.323Z,20.85
2022-12-09T14:39:07.867Z,31.27
2022-12-09T14:42:00.471Z,26.17
